This demonstration page uses our WeatherBlox Daily Observations layout. Learn more.

Left ArrowRight Arrow

Hourly Observations for July 25, 2018

Temp ( °F °C ) Dew Point ( °F °C ) Humidity (%) Winds ( mph kmh ) Pressure ( in mb ) Visibility ( mi km ) Precip ( " mm )
12:51 am 00:51 Clear 90 32.2 49 9.4 24 24 E 10 17 29.89 1012 10 16.0934 N/A
1:51 am 01:51 Clear 89 31.7 49 9.4 25 25 E 9 15 29.88 1012 10 16.0934 N/A
2:51 am 02:51 Clear 87 30.6 50 10 28 28 E 8 13 29.87 1012 10 16.0934 N/A
3:51 am 03:51 Clear 88 31.1 49 9.4 26 26 ESE 6 9 29.87 1012 10 16.0934 N/A
4:51 am 04:51 Clear 90 32.2 49 9.4 24 24 ENE 17 28 29.88 1012 10 16.0934 N/A
5:51 am 05:51 Sunny 85 29.4 52 11.1 32 32 S 9 15 29.91 1013 10 16.0934 N/A
6:51 am 06:51 Sunny 88 31.1 52 11.1 29 29 SE 8 13 29.92 1013 10 16.0934 N/A
7:51 am 07:51 Sunny 90 32.2 52 11.1 27 27 ESE 9 15 29.93 1014 10 16.0934 N/A
8:51 am 08:51 Sunny 94 34.4 51 10.6 23 23 N N/A 29.93 1014 10 16.0934 N/A
9:51 am 09:51 Sunny 97 36.1 50 10 20 20 S 6 9 29.92 1013 10 16.0934 N/A
10:51 am 10:51 Sunny 98 36.7 49 9.4 19 19 S 8 13 29.9 1013 10 16.0934 N/A
11:51 am 11:51 Sunny 102 38.9 47 8.3 15 15 WSW 8 13 29.87 1012 10 16.0934 N/A
12:51 pm 12:51 Sunny 105 40.6 46 7.8 14 14 VRB 6 9 29.83 1010 10 16.0934 N/A
1:51 pm 13:51 Sunny 107 41.7 46 7.8 13 13 W 14 22 29.8 1009 10 16.0934 N/A
2:51 pm 14:51 Sunny 108 42.2 44 6.7 12 12 W 13 20 29.77 1008 10 16.0934 N/A
3:51 pm 15:51 Sunny 110 43.3 43 6.1 10 10 NNE 16 26 29.74 1007 10 16.0934 N/A
4:08 pm 16:08 Sunny 106 41 45 7 13 13 NNE 18 30 29.62 1003 10 16.0934 N/A
4:51 pm 16:51 Mostly Sunny 102 38.9 46 7.8 15 15 NE 16 26 29.74 1007 10 16.0934 N/A
5:51 pm 17:51 Sunny 98 36.7 47 8.3 17 17 NNE 25 41 29.75 1007 10 16.0934 N/A
6:51 pm 18:51 Sunny 98 36.7 46 7.8 17 17 WNW 10 17 29.77 1008 10 16.0934 N/A
7:51 pm 19:51 Clear 94 34.4 51 10.6 23 23 NW 13 20 29.78 1009 10 16.0934 N/A
8:51 pm 20:51 Clear 91 32.8 50 10 25 25 NNW 14 22 29.8 1009 10 16.0934 N/A
9:51 pm 21:51 Clear 91 32.8 49 9.4 24 24 N 12 19 29.8 1009 10 16.0934 N/A
10:51 pm 22:51 Clear 89 31.7 49 9.4 25 25 WNW 7 11 29.8 1009 10 16.0934 N/A
11:51 pm 23:51 Clear 85 29.4 51 10.6 31 31 NW 6 9 29.8 1009 10 16.0934 N/A

Powered by AerisWeather